Racecast

Tyresse McFall

Speedalight Elite (CA) · 9-10 · Compare head to head

Athlete rating
Races 35
Seasons 2 2013 — 2014
Speed rating — all races

Track & Field

TF speed rating

2014 TF

Speedalight Elite (CA) · Grade 9-10

Date Meet Event Result Place Rating Difficulty PR/SR Flags
2014-05-31 Pacific Association Championships (PAC) 200m 30.66 15th · 2nd on team -0.024 PR SR
2014-05-31 Pacific Association Championships (PAC) 200m 29.85 9th · 1st on team -0.024 ★PR SR
2014-05-31 Pacific Association Championships (PAC) 100m 14.55 13th · 1st on team -0.024
2014-05-31 Pacific Association Championships (PAC) 100m 14.6 14th · 2nd on team -0.024
2014-04-26 Revolution Express TC 100m 15 4th · 1st on team -0.024
2014-04-26 Revolution Express TC 400m 1:17.97 9th · 1st on team -0.024
2014-04-26 Revolution Express TC 200m 30.94 5th · 1st on team -0.024 PR SR
2014-04-19 3rd Annual Shor/Sheppard Classic Meet 100m 14.55 2nd · 1st on team -0.022
2014-04-19 3rd Annual Shor/Sheppard Classic Meet 400m 1:21.67 15th · 1st on team -0.022
2014-04-05 Sacramento Speed Showcase 400m 1:15.14 11th · 1st on team -0.033 ★PR SR
2014-04-05 Sacramento Speed Showcase 100m 14.4 5th · 1st on team -0.033 ★PR SR
2014-04-05 Sacramento Speed Showcase 200m 31.55 7th · 1st on team -0.033 PR SR
2014-03-22 RPM 100m 14.94 7th · 1st on team -0.012 PR SR
2014-03-22 RPM 400m 1:15.74 8th · 1st on team -0.012 PR SR

2013 TF

Speedalight Elite (CA) · Grade 9-10

Date Meet Event Result Place Rating Difficulty PR/SR Flags
2013-06-08 Pacific Association Youth Championship (PAC) - 2-day meet 200m 35.5 34th · 3rd on team -0.024
2013-06-08 Pacific Association Youth Championship (PAC) - 2-day meet 100m 15.26 16th · 1st on team -0.024
2013-06-08 Pacific Association Youth Championship (PAC) - 2-day meet 400m 1:18.77 11th · 1st on team -0.024 PR SR
2013-06-01 100 Black Men Tommie Smith 100m 15.39 11th · 1st on team -0.036
2013-06-01 100 Black Men Tommie Smith 400m 1:31.64 16th · 2nd on team -0.036
2013-06-01 100 Black Men Tommie Smith 100m 15.66 14th · 2nd on team -0.036
2013-06-01 100 Black Men Tommie Smith 200m 33.83 13th · 1st on team -0.036
2013-05-18 3M Track Club 100m 15.67 32nd · 1st on team -0.028
2013-05-18 3M Track Club 200m 32.93 25th · 1st on team -0.028 PR SR
2013-05-18 3M Track Club 400m 1:19.11 17th · 1st on team -0.028 PR SR
2013-05-04 Hercules / Running Rebels (2-day) 200m 33.03 22nd · 1st on team -0.038 PR SR
2013-05-04 Hercules / Running Rebels (2-day) 100m 15.1 32nd · 1st on team -0.038 PR SR
2013-05-04 Hercules / Running Rebels (2-day) 400m 1:24.34 36th · 1st on team -0.038
2013-04-27 Revolution Express Track Club 100m 15.47 18th · 1st on team -0.024 PR SR
2013-04-27 Revolution Express Track Club 400m 1:23.16 24th · 3rd on team -0.024 PR SR
2013-04-20 Shor / Sheppard Classic 200m 34.24 24th · 2nd on team -0.022 PR SR
2013-04-06 Sacramento Speed Showcase 100m 16.94 34th · 4th on team -0.031
2013-04-06 Sacramento Speed Showcase 200m 35.08 22nd · 3rd on team -0.031 PR SR
2013-04-06 Sacramento Speed Showcase 400m 1:34.62 43rd · 6th on team -0.031 PR SR
2013-03-30 Stockton Saints 100m 16.5 37th · 3rd on team -0.016 PR SR
2013-03-30 Stockton Saints 400m 1:50.61 72nd · 5th on team -0.016 PR SR